createdAt,value
2022-10-06T00:02:22.068Z,0.93
2022-10-06T00:04:48.682Z,1.05
2022-10-06T00:07:16.140Z,1.30
2022-10-06T00:09:42.775Z,1.50
2022-10-06T00:12:09.824Z,1.20
2022-10-06T00:14:36.889Z,1.30
2022-10-06T00:17:03.994Z,1.10
2022-10-06T00:19:30.502Z,1.38
2022-10-06T00:21:57.009Z,1.48
2022-10-06T00:24:23.488Z,1.30
2022-10-06T00:26:49.919Z,1.30
2022-10-06T00:29:16.388Z,1.20
2022-10-06T00:31:43.734Z,1.10
2022-10-06T00:34:10.281Z,1.02
2022-10-06T00:36:37.293Z,1.80
2022-10-06T00:39:03.863Z,1.13
2022-10-06T00:41:30.426Z,1.10
2022-10-06T00:43:58.702Z,1.05
2022-10-06T00:49:12.133Z,1.00
2022-10-06T00:51:42.290Z,1.20
2022-10-06T00:54:09.153Z,1.30
2022-10-06T00:56:38.229Z,1.30
2022-10-06T00:59:08.696Z,1.40
2022-10-06T01:01:36.506Z,1.30
2022-10-06T01:04:09.508Z,1.05
2022-10-06T01:06:49.887Z,1.23
2022-10-06T01:09:18.361Z,1.15
2022-10-06T01:11:48.165Z,1.38
2022-10-06T01:14:15.094Z,1.23
2022-10-06T01:16:45.823Z,1.38
2022-10-06T01:19:31.802Z,1.55
2022-10-06T01:22:01.859Z,1.20
2022-10-06T01:24:28.663Z,1.30
2022-10-06T01:26:57.144Z,1.20
2022-10-06T01:29:24.725Z,1.42
2022-10-06T01:31:51.334Z,1.00
2022-10-06T01:34:17.869Z,1.30
2022-10-06T01:36:44.388Z,0.90
2022-10-06T01:39:10.883Z,1.05
2022-10-06T01:41:37.348Z,1.17
2022-10-06T01:44:04.060Z,1.10
2022-10-06T01:46:30.936Z,1.15
2022-10-06T01:48:57.548Z,1.13
2022-10-06T01:51:24.094Z,1.00
2022-10-06T01:53:50.597Z,1.17
2022-10-06T01:56:17.260Z,1.55
2022-10-06T01:58:43.773Z,1.23
2022-10-06T02:01:10.425Z,1.25
2022-10-06T02:03:38.910Z,1.10
2022-10-06T02:06:06.502Z,1.10
2022-10-06T02:08:33.296Z,1.05
2022-10-06T02:11:05.329Z,1.00
2022-10-06T02:13:32.101Z,1.30
2022-10-06T02:15:58.615Z,1.08
2022-10-06T02:18:25.652Z,0.95
2022-10-06T02:20:52.500Z,1.20
2022-10-06T02:23:18.992Z,1.50
2022-10-06T02:25:45.545Z,1.13
2022-10-06T02:28:12.093Z,1.10
2022-10-06T02:30:38.650Z,1.40
2022-10-06T02:33:05.244Z,1.27
2022-10-06T02:35:31.737Z,0.90
2022-10-06T02:37:58.342Z,1.40
2022-10-06T02:40:24.884Z,0.85
2022-10-06T02:42:51.394Z,1.10
2022-10-06T02:45:17.944Z,1.20
2022-10-06T02:47:44.492Z,1.23
2022-10-06T02:50:10.991Z,1.13
2022-10-06T02:52:41.198Z,1.13
2022-10-06T02:55:08.735Z,0.98
2022-10-06T02:57:35.200Z,1.30
2022-10-06T03:00:01.733Z,1.33
2022-10-06T03:02:30.832Z,0.90
2022-10-06T03:04:57.434Z,1.10
2022-10-06T03:07:24.130Z,1.27
2022-10-06T03:09:50.654Z,1.10
2022-10-06T03:12:17.161Z,1.30
2022-10-06T03:14:43.656Z,1.05
2022-10-06T03:17:10.116Z,1.20
2022-10-06T03:19:37.442Z,1.02
2022-10-06T03:22:05.387Z,1.20
2022-10-06T03:24:32.516Z,1.20
2022-10-06T03:26:59.239Z,1.15
2022-10-06T03:29:25.860Z,1.10
2022-10-06T03:31:52.445Z,0.90
2022-10-06T03:34:19.112Z,1.00
2022-10-06T03:36:45.600Z,1.02
2022-10-06T03:39:12.030Z,1.67
2022-10-06T03:41:38.978Z,0.90
2022-10-06T03:44:06.170Z,0.90
2022-10-06T03:46:35.155Z,1.10
2022-10-06T03:49:01.853Z,1.10
2022-10-06T03:51:39.875Z,1.15
2022-10-06T03:54:10.495Z,1.10
2022-10-06T03:56:39.639Z,1.15
2022-10-06T03:59:08.854Z,1.33
2022-10-06T04:01:38.319Z,1.00
2022-10-06T04:04:06.009Z,1.10
2022-10-06T04:06:35.169Z,1.40
2022-10-06T04:09:04.609Z,1.40
2022-10-06T04:11:34.422Z,1.27
2022-10-06T04:14:03.520Z,1.30
2022-10-06T04:16:32.663Z,1.30
2022-10-06T04:19:01.208Z,1.08
2022-10-06T04:21:29.670Z,1.40
2022-10-06T04:23:57.623Z,1.02
2022-10-06T04:26:30.641Z,1.10
2022-10-06T04:28:57.637Z,1.17
2022-10-06T04:31:26.810Z,1.10
2022-10-06T04:33:55.267Z,1.00
2022-10-06T04:36:27.162Z,1.27
2022-10-06T04:38:58.950Z,1.15
2022-10-06T04:41:31.961Z,1.27
2022-10-06T04:43:59.410Z,1.17
2022-10-06T04:46:44.205Z,0.90
2022-10-06T04:49:17.876Z,1.30
2022-10-06T04:51:46.389Z,1.58
2022-10-06T04:54:13.048Z,1.08
2022-10-06T04:56:39.580Z,0.90
2022-10-06T04:59:06.104Z,1.00
2022-10-06T05:01:34.905Z,1.58
2022-10-06T05:04:03.122Z,1.00
2022-10-06T05:06:32.231Z,1.20
2022-10-06T05:09:01.225Z,1.13
2022-10-06T05:11:28.227Z,1.25
2022-10-06T05:13:56.885Z,1.15
2022-10-06T05:16:25.199Z,1.10
2022-10-06T05:18:51.961Z,1.33
2022-10-06T05:21:27.782Z,1.20
2022-10-06T05:23:54.362Z,1.00
2022-10-06T05:26:23.496Z,1.00
2022-10-06T05:28:50.331Z,1.10
2022-10-06T05:31:18.403Z,1.02
2022-10-06T05:33:45.276Z,1.17
2022-10-06T05:36:17.631Z,1.05
2022-10-06T05:38:45.282Z,1.20
2022-10-06T05:41:14.438Z,1.20
2022-10-06T05:43:42.185Z,1.08
2022-10-06T05:46:17.285Z,1.20
2022-10-06T05:48:48.119Z,1.02
2022-10-06T05:51:15.297Z,1.30
2022-10-06T05:53:43.084Z,1.15
2022-10-06T05:56:17.457Z,1.20
2022-10-06T05:58:45.962Z,1.40
2022-10-06T06:01:19.628Z,1.30
2022-10-06T06:03:49.840Z,0.90
2022-10-06T06:06:22.239Z,1.40
2022-10-06T06:08:53.312Z,1.00
2022-10-06T06:11:25.350Z,1.05
2022-10-06T06:14:44.236Z,1.23
2022-10-06T06:17:11.548Z,1.30
2022-10-06T06:19:38.022Z,1.80
2022-10-06T06:22:04.486Z,1.10
2022-10-06T06:24:30.966Z,1.23
2022-10-06T06:26:57.443Z,2.30
2022-10-06T06:29:24.064Z,1.38
2022-10-06T06:31:51.075Z,1.30
2022-10-06T06:34:17.639Z,1.63
2022-10-06T06:36:46.963Z,1.20
2022-10-06T06:39:15.173Z,1.58
2022-10-06T06:41:45.299Z,1.42
2022-10-06T06:44:12.419Z,1.10
2022-10-06T06:46:40.342Z,1.15
2022-10-06T06:49:07.407Z,1.00
2022-10-06T06:51:35.827Z,1.38
2022-10-06T06:56:34.855Z,1.80
2022-10-06T06:59:10.472Z,1.40
2022-10-06T07:01:38.974Z,1.20
2022-10-06T07:04:06.264Z,1.13
2022-10-06T07:06:32.844Z,1.23
2022-10-06T07:09:00.545Z,1.50
2022-10-06T07:11:30.366Z,1.85
2022-10-06T07:14:01.252Z,1.83
2022-10-06T07:16:48.403Z,2.03
2022-10-06T07:19:34.421Z,1.50
2022-10-06T07:22:23.831Z,1.42
2022-10-06T07:25:08.336Z,1.95
2022-10-06T07:27:46.508Z,1.55
2022-10-06T07:30:19.585Z,1.60
2022-10-06T07:32:50.960Z,1.60
2022-10-06T07:35:20.345Z,1.70
2022-10-06T07:37:47.825Z,1.58
2022-10-06T07:40:14.975Z,2.08
2022-10-06T07:42:54.075Z,1.92
2022-10-06T07:45:45.135Z,1.75
2022-10-06T07:48:14.806Z,1.88
2022-10-06T07:50:42.881Z,1.40
2022-10-06T07:53:09.530Z,1.10
2022-10-06T07:55:39.783Z,1.40
2022-10-06T07:58:17.847Z,1.17
2022-10-06T08:00:46.131Z,1.63
2022-10-06T08:05:50.183Z,1.33
2022-10-06T08:08:17.564Z,1.30
2022-10-06T08:10:51.687Z,1.15
2022-10-06T08:13:18.249Z,1.63
2022-10-06T08:15:44.770Z,1.90
2022-10-06T08:18:27.243Z,1.55
2022-10-06T08:20:58.753Z,1.20
2022-10-06T08:23:25.942Z,1.33
2022-10-06T08:25:54.349Z,1.48
2022-10-06T08:28:22.269Z,1.48
2022-10-06T08:30:51.428Z,1.42
2022-10-06T08:33:21.268Z,1.52
2022-10-06T08:35:48.165Z,1.20
2022-10-06T08:38:14.751Z,1.38
2022-10-06T08:40:43.847Z,1.45
2022-10-06T08:43:18.975Z,1.80
2022-10-06T08:45:47.604Z,1.58
2022-10-06T08:48:19.854Z,0.93
2022-10-06T08:51:05.044Z,1.30
2022-10-06T08:53:46.995Z,1.38
2022-10-06T08:56:19.662Z,1.20
2022-10-06T08:58:52.688Z,1.30
2022-10-06T09:01:26.630Z,1.40
2022-10-06T09:03:58.392Z,1.20
2022-10-06T09:06:43.436Z,1.02
2022-10-06T09:09:25.255Z,1.20
2022-10-06T09:11:54.710Z,1.67
2022-10-06T09:14:42.419Z,1.33
2022-10-06T09:17:18.990Z,1.45
2022-10-06T09:19:51.333Z,1.45
2022-10-06T09:22:23.304Z,1.15
2022-10-06T09:24:57.420Z,1.02
2022-10-06T09:27:33.758Z,1.10
2022-10-06T09:30:01.590Z,1.40
2022-10-06T09:32:30.727Z,1.30
2022-10-06T09:35:02.678Z,1.08
2022-10-06T09:37:29.179Z,1.20
2022-10-06T09:39:56.059Z,1.27
2022-10-06T09:42:29.526Z,1.30
2022-10-06T09:45:04.002Z,1.00
2022-10-06T09:47:37.056Z,0.98
2022-10-06T09:50:12.655Z,1.13
2022-10-06T09:52:40.806Z,1.10
2022-10-06T09:55:14.963Z,0.90
2022-10-06T09:58:25.850Z,1.00
2022-10-06T10:00:55.933Z,0.80
2022-10-06T10:03:26.100Z,1.30
2022-10-06T10:05:54.955Z,0.90
2022-10-06T10:08:24.596Z,1.10
2022-10-06T10:11:32.139Z,0.85
2022-10-06T10:13:59.802Z,1.10
2022-10-06T10:16:34.513Z,0.90
2022-10-06T10:19:03.240Z,1.13
2022-10-06T10:21:33.618Z,0.98
2022-10-06T10:24:03.286Z,1.20
2022-10-06T10:26:57.137Z,1.00
2022-10-06T10:29:33.037Z,1.23
2022-10-06T10:32:15.411Z,1.20
2022-10-06T10:34:42.781Z,1.25
2022-10-06T10:37:14.017Z,1.40
2022-10-06T10:39:50.112Z,1.02
2022-10-06T10:42:39.712Z,1.00
2022-10-06T10:45:34.428Z,1.00
2022-10-06T10:48:05.647Z,1.00
2022-10-06T10:50:39.226Z,0.95
2022-10-06T10:53:22.587Z,0.70
2022-10-06T10:55:51.071Z,0.77
2022-10-06T10:58:33.170Z,1.02
2022-10-06T11:01:29.634Z,0.80
2022-10-06T11:03:58.379Z,1.00
2022-10-06T11:06:55.671Z,1.15
2022-10-06T11:09:29.018Z,1.05
2022-10-06T11:12:34.303Z,1.00
2022-10-06T11:15:17.041Z,0.82
2022-10-06T11:17:50.324Z,0.93
2022-10-06T11:20:44.118Z,0.93
2022-10-06T11:23:22.626Z,1.33
2022-10-06T11:26:09.799Z,0.85
2022-10-06T11:28:55.629Z,1.02
2022-10-06T11:31:42.402Z,1.00
2022-10-06T11:34:10.635Z,0.90
2022-10-06T11:36:47.970Z,0.90
2022-10-06T11:39:22.513Z,0.80
2022-10-06T11:41:57.128Z,1.02
2022-10-06T11:44:31.465Z,0.93
2022-10-06T11:47:02.558Z,1.25
2022-10-06T11:49:28.963Z,0.73
2022-10-06T11:52:15.646Z,0.80
2022-10-06T11:54:48.318Z,1.00
2022-10-06T11:57:30.206Z,1.00
2022-10-06T12:00:17.768Z,0.85
2022-10-06T12:02:46.964Z,1.20
2022-10-06T12:05:45.864Z,1.00
2022-10-06T12:08:00.632Z,0.80
2022-10-06T12:10:30.163Z,0.93
2022-10-06T12:14:26.278Z,0.90
2022-10-06T12:19:54.103Z,0.80
2022-10-06T12:22:37.427Z,0.77
2022-10-06T12:25:16.410Z,1.02
2022-10-06T12:28:18.461Z,0.90
2022-10-06T12:31:22.887Z,0.82
2022-10-06T12:33:50.477Z,0.70
2022-10-06T12:36:26.844Z,0.90
2022-10-06T12:39:20.384Z,0.70
2022-10-06T12:42:00.833Z,0.80
2022-10-06T12:44:37.484Z,0.80
2022-10-06T12:47:10.199Z,1.10
2022-10-06T12:49:46.081Z,0.90
2022-10-06T12:52:46.059Z,1.10
2022-10-06T12:55:21.372Z,1.13
2022-10-06T12:57:52.366Z,1.00
2022-10-06T13:02:54.381Z,0.60
2022-10-06T13:05:20.991Z,0.70
2022-10-06T13:08:02.711Z,0.80
2022-10-06T13:10:30.698Z,0.70
2022-10-06T13:15:29.574Z,0.65
2022-10-06T13:18:08.176Z,1.02
2022-10-06T13:20:36.611Z,0.93
2022-10-06T13:23:23.397Z,0.63
2022-10-06T13:26:02.112Z,0.70
2022-10-06T13:28:43.880Z,0.77
2022-10-06T13:31:34.908Z,0.73
2022-10-06T13:34:05.789Z,0.80
2022-10-06T13:36:41.403Z,0.90
2022-10-06T13:39:18.006Z,0.63
2022-10-06T13:41:51.707Z,0.80
2022-10-06T13:44:18.775Z,0.80
2022-10-06T13:46:54.208Z,0.77
2022-10-06T13:49:40.783Z,0.65
2022-10-06T13:52:16.484Z,0.60
2022-10-06T13:54:58.056Z,0.85
2022-10-06T13:58:08.506Z,0.98
2022-10-06T14:00:58.026Z,1.15
2022-10-06T14:06:19.012Z,0.68
2022-10-06T14:08:52.452Z,0.60
2022-10-06T14:11:28.098Z,0.50
2022-10-06T14:13:56.325Z,1.10
2022-10-06T14:16:27.776Z,0.70
2022-10-06T14:19:05.496Z,0.77
2022-10-06T14:21:31.980Z,0.68
2022-10-06T14:23:59.974Z,0.50
2022-10-06T14:28:58.947Z,0.50
2022-10-06T14:31:27.760Z,0.63
2022-10-06T14:33:56.953Z,0.60
2022-10-06T14:36:25.765Z,0.50
2022-10-06T14:38:52.292Z,0.60
2022-10-06T14:41:19.905Z,0.60
2022-10-06T14:43:47.688Z,0.70
2022-10-06T14:46:15.569Z,0.60
2022-10-06T14:48:42.204Z,0.60
2022-10-06T14:51:09.634Z,0.95
2022-10-06T14:53:39.121Z,0.70
2022-10-06T14:56:09.114Z,0.70
2022-10-06T14:58:40.220Z,1.00
2022-10-06T15:01:07.747Z,0.55
2022-10-06T15:03:36.983Z,0.50
2022-10-06T15:06:27.543Z,0.60
2022-10-06T15:08:56.535Z,0.85
2022-10-06T15:11:25.562Z,0.60
2022-10-06T15:13:54.872Z,0.70
2022-10-06T15:16:24.634Z,0.50
2022-10-06T15:18:52.153Z,0.63
2022-10-06T15:21:19.583Z,0.80
2022-10-06T15:23:48.037Z,0.50
2022-10-06T15:26:33.131Z,1.20
2022-10-06T15:29:05.829Z,0.60
2022-10-06T15:31:38.288Z,0.85
2022-10-06T15:34:07.270Z,0.75
2022-10-06T15:36:39.469Z,0.70
2022-10-06T15:39:09.013Z,0.60
2022-10-06T15:41:36.844Z,0.60
2022-10-06T15:44:05.047Z,0.68
2022-10-06T15:46:37.206Z,0.60
2022-10-06T15:49:06.607Z,0.70
2022-10-06T15:51:38.425Z,0.80
2022-10-06T15:54:05.489Z,0.70
2022-10-06T15:56:32.135Z,0.60
2022-10-06T15:58:59.663Z,0.80
2022-10-06T16:01:28.176Z,0.60
2022-10-06T16:03:54.863Z,0.80
2022-10-06T16:06:30.262Z,0.60
2022-10-06T16:08:56.792Z,0.80
2022-10-06T16:11:23.324Z,1.70
2022-10-06T16:13:51.775Z,0.90
2022-10-06T16:16:18.303Z,0.70
2022-10-06T16:18:44.865Z,1.00
2022-10-06T16:21:11.381Z,0.90
2022-10-06T16:23:37.829Z,0.98
2022-10-06T16:26:04.517Z,0.70
2022-10-06T16:28:31.053Z,0.93
2022-10-06T16:30:57.697Z,0.80
2022-10-06T16:33:24.275Z,1.00
2022-10-06T16:35:58.578Z,0.80
2022-10-06T16:41:01.715Z,0.82
2022-10-06T16:43:32.249Z,0.90
2022-10-06T16:46:02.285Z,0.90
2022-10-06T16:48:34.793Z,0.80
2022-10-06T16:51:03.172Z,1.38
2022-10-06T16:53:38.907Z,1.17
2022-10-06T16:56:07.254Z,1.33
2022-10-06T16:58:39.144Z,0.98
2022-10-06T17:01:06.279Z,1.38
2022-10-06T17:03:33.270Z,1.00
2022-10-06T17:06:16.976Z,1.02
2022-10-06T17:08:44.784Z,1.25
2022-10-06T17:11:15.866Z,1.02
2022-10-06T17:13:47.412Z,1.10
2022-10-06T17:16:17.337Z,0.77
2022-10-06T17:18:47.714Z,1.13
2022-10-06T17:21:39.576Z,1.10
2022-10-06T17:24:03.210Z,1.02
2022-10-06T17:26:32.372Z,1.70
2022-10-06T17:29:02.133Z,1.20
2022-10-06T17:31:35.762Z,1.40
2022-10-06T17:34:04.899Z,1.10
2022-10-06T17:36:31.650Z,1.20
2022-10-06T17:39:03.828Z,1.30
2022-10-06T17:41:33.357Z,1.08
2022-10-06T17:44:06.364Z,1.20
2022-10-06T17:46:37.579Z,0.90
2022-10-06T17:49:07.566Z,1.00
2022-10-06T17:51:35.901Z,1.00
2022-10-06T17:54:05.370Z,1.05
2022-10-06T17:56:34.567Z,1.10
2022-10-06T17:59:05.309Z,0.90
2022-10-06T18:01:33.386Z,1.02
2022-10-06T18:04:03.336Z,1.10
2022-10-06T18:06:32.555Z,1.05
2022-10-06T18:09:00.924Z,1.40
2022-10-06T18:11:43.683Z,1.33
2022-10-06T18:14:17.372Z,1.20
2022-10-06T18:16:58.828Z,1.13
2022-10-06T18:19:33.813Z,1.10
2022-10-06T18:22:03.398Z,1.30
2022-10-06T18:24:31.374Z,1.50
2022-10-06T18:27:00.082Z,1.20
2022-10-06T18:29:33.632Z,1.45
2022-10-06T18:33:44.836Z,1.52
2022-10-06T18:37:34.854Z,1.85
2022-10-06T18:40:05.446Z,1.70
2022-10-06T18:42:31.895Z,1.60
2022-10-06T18:45:16.762Z,1.63
2022-10-06T18:48:01.731Z,1.73
2022-10-06T18:50:28.421Z,2.50
2022-10-06T18:52:56.870Z,2.50
2022-10-06T18:55:23.555Z,3.00
2022-10-06T18:57:50.586Z,2.67
2022-10-06T19:00:17.472Z,2.45
2022-10-06T19:02:48.260Z,2.70
2022-10-06T19:05:17.262Z,2.80
2022-10-06T19:07:44.016Z,2.72
2022-10-06T19:10:11.077Z,3.05
2022-10-06T19:12:37.543Z,2.78
2022-10-06T19:15:04.294Z,2.42
2022-10-06T19:17:30.732Z,3.25
2022-10-06T19:19:57.218Z,3.40
2022-10-06T19:22:26.485Z,3.13
2022-10-06T19:24:53.031Z,2.83
2022-10-06T19:27:24.995Z,2.60
2022-10-06T19:29:54.409Z,3.60
2022-10-06T19:32:26.274Z,3.08
2022-10-06T19:34:54.913Z,2.90
2022-10-06T19:37:21.416Z,2.78
2022-10-06T19:39:50.139Z,3.13
2022-10-06T19:42:37.336Z,3.25
2022-10-06T19:45:06.310Z,2.78
2022-10-06T19:47:32.878Z,2.78
2022-10-06T19:50:03.720Z,2.70
2022-10-06T19:52:32.757Z,2.63
2022-10-06T19:55:00.725Z,3.28
2022-10-06T19:57:29.154Z,2.47
2022-10-06T20:02:23.200Z,2.53
2022-10-06T20:04:50.504Z,2.63
2022-10-06T20:07:17.271Z,2.75
2022-10-06T20:09:44.105Z,2.40
2022-10-06T20:12:10.569Z,2.70
2022-10-06T20:14:37.113Z,2.90
2022-10-06T20:17:03.681Z,2.80
2022-10-06T20:19:31.005Z,3.00
2022-10-06T20:21:57.850Z,3.10
2022-10-06T20:24:24.798Z,3.00
2022-10-06T20:26:52.942Z,2.97
2022-10-06T20:29:26.483Z,3.60
2022-10-06T20:31:55.244Z,3.30
2022-10-06T20:34:31.585Z,3.17
2022-10-06T20:37:00.062Z,3.10
2022-10-06T20:39:45.225Z,3.00
2022-10-06T20:42:15.257Z,2.63
2022-10-06T20:44:43.028Z,2.90
2022-10-06T20:47:11.342Z,2.65
2022-10-06T20:52:05.539Z,2.88
2022-10-06T20:54:35.117Z,2.50
2022-10-06T20:57:04.134Z,2.53
2022-10-06T20:59:31.288Z,2.53
2022-10-06T21:02:00.885Z,2.78
2022-10-06T21:04:27.574Z,2.80
2022-10-06T21:06:54.146Z,2.63
2022-10-06T21:09:20.574Z,2.50
2022-10-06T21:11:47.673Z,2.55
2022-10-06T21:14:14.993Z,2.47
2022-10-06T21:16:43.508Z,2.20
2022-10-06T21:19:14.123Z,2.70
2022-10-06T21:21:42.327Z,2.70
2022-10-06T21:24:09.064Z,2.90
2022-10-06T21:26:36.815Z,2.88
2022-10-06T21:29:03.356Z,2.70
2022-10-06T21:31:30.393Z,2.95
2022-10-06T21:33:56.988Z,3.58
2022-10-06T21:36:25.986Z,3.60
2022-10-06T21:38:55.001Z,3.60
2022-10-06T21:41:30.345Z,4.00
2022-10-06T21:44:04.345Z,4.90
2022-10-06T21:46:36.521Z,4.50
2022-10-06T21:49:06.589Z,5.13
2022-10-06T21:51:33.783Z,4.90
2022-10-06T21:54:01.201Z,4.63
2022-10-06T21:56:30.128Z,4.95
2022-10-06T21:58:57.417Z,5.68
2022-10-06T22:01:33.183Z,4.65
2022-10-06T22:04:00.398Z,5.18
2022-10-06T22:06:29.757Z,4.60
2022-10-06T22:08:57.616Z,4.05
2022-10-06T22:11:27.168Z,4.05
2022-10-06T22:13:56.702Z,3.63
2022-10-06T22:16:24.927Z,3.85
2022-10-06T22:18:52.007Z,3.90
2022-10-06T22:21:27.297Z,4.35
2022-10-06T22:24:02.609Z,3.90
2022-10-06T22:26:30.548Z,3.67
2022-10-06T22:28:58.174Z,3.92
2022-10-06T22:31:26.764Z,3.53
2022-10-06T22:34:00.888Z,3.95
2022-10-06T22:36:28.429Z,3.47
2022-10-06T22:38:55.811Z,3.60
2022-10-06T22:41:22.687Z,3.95
2022-10-06T22:43:52.235Z,4.05
2022-10-06T22:46:18.756Z,3.63
2022-10-06T22:48:45.257Z,3.95
2022-10-06T22:51:11.701Z,3.63
2022-10-06T22:53:38.103Z,3.65
2022-10-06T22:56:04.585Z,3.80
2022-10-06T22:58:31.120Z,3.63
2022-10-06T23:00:57.785Z,3.78
2022-10-06T23:03:24.704Z,3.92
2022-10-06T23:05:59.924Z,3.83
2022-10-06T23:08:30.180Z,3.60
2022-10-06T23:11:10.163Z,3.30
2022-10-06T23:13:37.133Z,3.42
2022-10-06T23:16:07.827Z,3.65
2022-10-06T23:18:37.121Z,3.88
2022-10-06T23:21:09.027Z,3.92
2022-10-06T23:23:35.574Z,3.70
2022-10-06T23:26:11.757Z,3.65
2022-10-06T23:28:38.922Z,3.60
2022-10-06T23:31:08.037Z,3.75
2022-10-06T23:33:35.548Z,3.65
2022-10-06T23:36:05.400Z,3.92
2022-10-06T23:38:31.973Z,3.70
2022-10-06T23:40:58.526Z,3.97
2022-10-06T23:43:24.999Z,3.67
2022-10-06T23:45:51.522Z,3.50
2022-10-06T23:48:18.274Z,3.25
2022-10-06T23:50:58.640Z,3.95
2022-10-06T23:53:25.136Z,3.97
2022-10-06T23:55:51.655Z,3.97
2022-10-06T23:58:19.111Z,3.50
